sensor_id;sensor_type;location;lat;lon;timestamp;P1;durP1;ratioP1;P2;durP2;ratioP2
8964;SDS011;4517;49.020;12.066;2023-04-23T00:00:33;16.13;;;14.73;;
8964;SDS011;4517;49.020;12.066;2023-04-23T00:03:01;16.13;;;14.70;;
8964;SDS011;4517;49.020;12.066;2023-04-23T00:05:36;16.40;;;15.27;;
8964;SDS011;4517;49.020;12.066;2023-04-23T00:08:03;14.77;;;13.87;;
8964;SDS011;4517;49.020;12.066;2023-04-23T00:10:29;16.27;;;14.83;;
8964;SDS011;4517;49.020;12.066;2023-04-23T00:12:56;14.53;;;13.60;;
8964;SDS011;4517;49.020;12.066;2023-04-23T00:15:22;16.47;;;15.27;;
8964;SDS011;4517;49.020;12.066;2023-04-23T00:17:47;16.50;;;15.10;;
8964;SDS011;4517;49.020;12.066;2023-04-23T00:20:16;16.03;;;14.93;;
8964;SDS011;4517;49.020;12.066;2023-04-23T00:22:44;15.93;;;14.90;;
8964;SDS011;4517;49.020;12.066;2023-04-23T00:25:10;16.33;;;15.13;;
8964;SDS011;4517;49.020;12.066;2023-04-23T00:27:36;15.83;;;14.63;;
8964;SDS011;4517;49.020;12.066;2023-04-23T00:30:02;17.17;;;15.17;;
8964;SDS011;4517;49.020;12.066;2023-04-23T00:32:29;16.97;;;15.77;;
8964;SDS011;4517;49.020;12.066;2023-04-23T00:34:54;15.90;;;14.70;;
8964;SDS011;4517;49.020;12.066;2023-04-23T00:37:20;16.43;;;15.23;;
8964;SDS011;4517;49.020;12.066;2023-04-23T00:39:46;17.07;;;15.87;;
8964;SDS011;4517;49.020;12.066;2023-04-23T00:42:12;16.70;;;15.60;;
8964;SDS011;4517;49.020;12.066;2023-04-23T00:44:38;17.07;;;15.87;;
8964;SDS011;4517;49.020;12.066;2023-04-23T00:47:06;16.40;;;15.00;;
8964;SDS011;4517;49.020;12.066;2023-04-23T00:49:32;16.50;;;15.10;;
8964;SDS011;4517;49.020;12.066;2023-04-23T00:51:58;17.10;;;15.50;;
8964;SDS011;4517;49.020;12.066;2023-04-23T00:54:25;17.47;;;16.10;;
8964;SDS011;4517;49.020;12.066;2023-04-23T00:56:51;16.17;;;14.80;;
8964;SDS011;4517;49.020;12.066;2023-04-23T00:59:18;15.90;;;14.70;;
8964;SDS011;4517;49.020;12.066;2023-04-23T01:01:44;16.43;;;15.23;;
8964;SDS011;4517;49.020;12.066;2023-04-23T01:04:13;15.77;;;14.67;;
8964;SDS011;4517;49.020;12.066;2023-04-23T01:06:40;16.43;;;15.03;;
8964;SDS011;4517;49.020;12.066;2023-04-23T01:09:06;15.87;;;14.70;;
8964;SDS011;4517;49.020;12.066;2023-04-23T01:11:34;16.47;;;15.37;;
8964;SDS011;4517;49.020;12.066;2023-04-23T01:14:03;16.07;;;14.77;;
8964;SDS011;4517;49.020;12.066;2023-04-23T01:16:28;17.00;;;15.80;;
8964;SDS011;4517;49.020;12.066;2023-04-23T01:18:55;17.90;;;16.20;;
8964;SDS011;4517;49.020;12.066;2023-04-23T01:21:22;16.77;;;15.50;;
8964;SDS011;4517;49.020;12.066;2023-04-23T01:23:49;15.60;;;14.50;;
8964;SDS011;4517;49.020;12.066;2023-04-23T01:26:15;17.53;;;15.87;;
8964;SDS011;4517;49.020;12.066;2023-04-23T01:28:42;16.60;;;15.40;;
8964;SDS011;4517;49.020;12.066;2023-04-23T01:31:09;16.47;;;15.30;;
8964;SDS011;4517;49.020;12.066;2023-04-23T01:33:37;16.50;;;15.33;;
8964;SDS011;4517;49.020;12.066;2023-04-23T01:36:05;16.30;;;15.20;;
8964;SDS011;4517;49.020;12.066;2023-04-23T01:38:31;15.63;;;14.53;;
8964;SDS011;4517;49.020;12.066;2023-04-23T01:40:58;16.47;;;15.17;;
8964;SDS011;4517;49.020;12.066;2023-04-23T01:43:24;16.60;;;15.30;;
8964;SDS011;4517;49.020;12.066;2023-04-23T01:45:49;16.00;;;14.90;;
8964;SDS011;4517;49.020;12.066;2023-04-23T01:48:15;17.90;;;15.30;;
8964;SDS011;4517;49.020;12.066;2023-04-23T01:50:41;16.77;;;15.20;;
8964;SDS011;4517;49.020;12.066;2023-04-23T01:53:07;17.87;;;16.60;;
8964;SDS011;4517;49.020;12.066;2023-04-23T01:55:33;16.73;;;15.50;;
8964;SDS011;4517;49.020;12.066;2023-04-23T01:58:02;16.80;;;15.40;;
8964;SDS011;4517;49.020;12.066;2023-04-23T02:00:28;16.50;;;15.33;;
8964;SDS011;4517;49.020;12.066;2023-04-23T02:02:53;16.67;;;15.57;;
8964;SDS011;4517;49.020;12.066;2023-04-23T02:05:19;16.43;;;15.40;;
8964;SDS011;4517;49.020;12.066;2023-04-23T02:07:46;15.63;;;14.27;;
8964;SDS011;4517;49.020;12.066;2023-04-23T02:10:14;16.13;;;14.93;;
8964;SDS011;4517;49.020;12.066;2023-04-23T02:12:40;16.83;;;15.40;;
8964;SDS011;4517;49.020;12.066;2023-04-23T02:15:06;16.30;;;15.10;;
8964;SDS011;4517;49.020;12.066;2023-04-23T02:17:37;17.13;;;15.83;;
8964;SDS011;4517;49.020;12.066;2023-04-23T02:20:04;16.90;;;15.40;;
8964;SDS011;4517;49.020;12.066;2023-04-23T02:22:32;16.50;;;15.30;;
8964;SDS011;4517;49.020;12.066;2023-04-23T02:24:57;16.20;;;15.03;;
8964;SDS011;4517;49.020;12.066;2023-04-23T02:27:23;16.77;;;15.60;;
8964;SDS011;4517;49.020;12.066;2023-04-23T02:29:49;17.37;;;16.10;;
8964;SDS011;4517;49.020;12.066;2023-04-23T02:32:16;16.10;;;14.90;;
8964;SDS011;4517;49.020;12.066;2023-04-23T02:34:41;16.20;;;15.07;;
8964;SDS011;4517;49.020;12.066;2023-04-23T02:37:07;17.47;;;16.13;;
8964;SDS011;4517;49.020;12.066;2023-04-23T02:39:32;16.50;;;15.40;;
8964;SDS011;4517;49.020;12.066;2023-04-23T02:41:58;17.63;;;16.30;;
8964;SDS011;4517;49.020;12.066;2023-04-23T02:44:25;17.30;;;15.97;;
8964;SDS011;4517;49.020;12.066;2023-04-23T02:46:51;17.53;;;15.87;;
8964;SDS011;4517;49.020;12.066;2023-04-23T02:49:17;15.93;;;14.90;;
8964;SDS011;4517;49.020;12.066;2023-04-23T02:51:44;16.20;;;14.83;;
8964;SDS011;4517;49.020;12.066;2023-04-23T02:54:10;16.87;;;15.47;;
8964;SDS011;4517;49.020;12.066;2023-04-23T02:56:36;17.40;;;15.90;;
8964;SDS011;4517;49.020;12.066;2023-04-23T02:59:01;16.23;;;15.13;;
8964;SDS011;4517;49.020;12.066;2023-04-23T03:01:27;16.33;;;15.13;;
8964;SDS011;4517;49.020;12.066;2023-04-23T03:03:53;16.67;;;15.43;;
8964;SDS011;4517;49.020;12.066;2023-04-23T03:06:18;16.40;;;15.20;;
8964;SDS011;4517;49.020;12.066;2023-04-23T03:08:44;17.37;;;16.03;;
8964;SDS011;4517;49.020;12.066;2023-04-23T03:11:10;15.80;;;14.70;;
8964;SDS011;4517;49.020;12.066;2023-04-23T03:13:35;17.17;;;15.93;;
8964;SDS011;4517;49.020;12.066;2023-04-23T03:16:01;16.00;;;14.70;;
8964;SDS011;4517;49.020;12.066;2023-04-23T03:18:26;16.07;;;14.87;;
8964;SDS011;4517;49.020;12.066;2023-04-23T03:20:52;17.10;;;15.90;;
8964;SDS011;4517;49.020;12.066;2023-04-23T03:23:17;16.13;;;14.87;;
8964;SDS011;4517;49.020;12.066;2023-04-23T03:25:43;17.60;;;16.27;;
8964;SDS011;4517;49.020;12.066;2023-04-23T03:28:08;18.07;;;16.67;;
8964;SDS011;4517;49.020;12.066;2023-04-23T03:30:34;16.97;;;15.57;;
8964;SDS011;4517;49.020;12.066;2023-04-23T03:33:00;16.43;;;15.23;;
8964;SDS011;4517;49.020;12.066;2023-04-23T03:35:28;16.33;;;15.13;;
8964;SDS011;4517;49.020;12.066;2023-04-23T03:37:54;15.70;;;14.60;;
8964;SDS011;4517;49.020;12.066;2023-04-23T03:40:20;18.23;;;16.73;;
8964;SDS011;4517;49.020;12.066;2023-04-23T03:42:46;16.90;;;15.50;;
8964;SDS011;4517;49.020;12.066;2023-04-23T03:45:12;17.17;;;15.83;;
8964;SDS011;4517;49.020;12.066;2023-04-23T03:47:38;17.30;;;15.80;;
8964;SDS011;4517;49.020;12.066;2023-04-23T03:50:05;17.07;;;15.87;;
8964;SDS011;4517;49.020;12.066;2023-04-23T03:52:31;16.87;;;15.57;;
8964;SDS011;4517;49.020;12.066;2023-04-23T03:54:57;16.50;;;15.30;;
8964;SDS011;4517;49.020;12.066;2023-04-23T03:57:22;16.07;;;14.70;;
8964;SDS011;4517;49.020;12.066;2023-04-23T03:59:48;17.10;;;15.47;;
8964;SDS011;4517;49.020;12.066;2023-04-23T04:02:13;16.53;;;15.13;;
8964;SDS011;4517;49.020;12.066;2023-04-23T04:04:40;15.83;;;14.70;;
8964;SDS011;4517;49.020;12.066;2023-04-23T04:07:06;16.10;;;14.90;;
8964;SDS011;4517;49.020;12.066;2023-04-23T04:09:35;16.77;;;15.33;;
8964;SDS011;4517;49.020;12.066;2023-04-23T04:12:02;17.63;;;16.07;;
8964;SDS011;4517;49.020;12.066;2023-04-23T04:14:28;16.50;;;15.00;;
8964;SDS011;4517;49.020;12.066;2023-04-23T04:16:55;17.47;;;15.97;;
8964;SDS011;4517;49.020;12.066;2023-04-23T04:19:20;16.80;;;15.40;;
8964;SDS011;4517;49.020;12.066;2023-04-23T04:21:46;15.53;;;14.37;;
8964;SDS011;4517;49.020;12.066;2023-04-23T04:24:12;16.57;;;15.27;;
8964;SDS011;4517;49.020;12.066;2023-04-23T04:29:29;16.30;;;14.80;;
8964;SDS011;4517;49.020;12.066;2023-04-23T04:31:55;15.90;;;14.70;;
8964;SDS011;4517;49.020;12.066;2023-04-23T04:34:21;15.27;;;13.97;;
8964;SDS011;4517;49.020;12.066;2023-04-23T04:36:47;15.80;;;14.50;;
8964;SDS011;4517;49.020;12.066;2023-04-23T04:41:57;17.43;;;15.77;;
8964;SDS011;4517;49.020;12.066;2023-04-23T04:44:31;16.80;;;15.30;;
8964;SDS011;4517;49.020;12.066;2023-04-23T04:46:56;15.67;;;14.20;;
8964;SDS011;4517;49.020;12.066;2023-04-23T04:49:22;17.27;;;15.67;;
8964;SDS011;4517;49.020;12.066;2023-04-23T04:51:47;16.37;;;15.10;;
8964;SDS011;4517;49.020;12.066;2023-04-23T04:54:13;17.40;;;15.90;;
8964;SDS011;4517;49.020;12.066;2023-04-23T04:56:39;16.60;;;15.10;;
8964;SDS011;4517;49.020;12.066;2023-04-23T04:59:04;17.60;;;15.87;;
8964;SDS011;4517;49.020;12.066;2023-04-23T05:01:41;16.53;;;15.13;;
8964;SDS011;4517;49.020;12.066;2023-04-23T05:04:06;18.03;;;16.13;;
8964;SDS011;4517;49.020;12.066;2023-04-23T05:06:32;17.90;;;16.47;;
8964;SDS011;4517;49.020;12.066;2023-04-23T05:08:58;17.33;;;15.77;;
8964;SDS011;4517;49.020;12.066;2023-04-23T05:11:23;18.00;;;16.60;;
8964;SDS011;4517;49.020;12.066;2023-04-23T05:13:49;17.50;;;16.00;;
8964;SDS011;4517;49.020;12.066;2023-04-23T05:16:15;16.37;;;15.00;;
8964;SDS011;4517;49.020;12.066;2023-04-23T05:18:41;15.50;;;14.30;;
8964;SDS011;4517;49.020;12.066;2023-04-23T05:21:06;15.07;;;13.87;;
8964;SDS011;4517;49.020;12.066;2023-04-23T05:23:33;15.60;;;14.50;;
8964;SDS011;4517;49.020;12.066;2023-04-23T05:25:59;16.77;;;15.37;;
8964;SDS011;4517;49.020;12.066;2023-04-23T05:28:27;16.53;;;15.20;;
8964;SDS011;4517;49.020;12.066;2023-04-23T05:30:53;17.00;;;15.50;;
8964;SDS011;4517;49.020;12.066;2023-04-23T05:33:19;15.97;;;14.10;;
8964;SDS011;4517;49.020;12.066;2023-04-23T05:35:44;14.93;;;13.77;;
8964;SDS011;4517;49.020;12.066;2023-04-23T05:38:10;14.57;;;13.43;;
8964;SDS011;4517;49.020;12.066;2023-04-23T05:40:36;14.17;;;13.17;;
8964;SDS011;4517;49.020;12.066;2023-04-23T05:43:01;13.80;;;12.90;;
8964;SDS011;4517;49.020;12.066;2023-04-23T05:45:27;13.83;;;12.83;;
8964;SDS011;4517;49.020;12.066;2023-04-23T05:47:52;12.73;;;11.70;;
8964;SDS011;4517;49.020;12.066;2023-04-23T05:50:19;12.80;;;11.90;;
8964;SDS011;4517;49.020;12.066;2023-04-23T05:52:45;13.30;;;12.40;;
8964;SDS011;4517;49.020;12.066;2023-04-23T05:55:10;12.60;;;11.80;;
8964;SDS011;4517;49.020;12.066;2023-04-23T05:57:36;12.23;;;11.63;;
8964;SDS011;4517;49.020;12.066;2023-04-23T06:00:03;12.40;;;11.60;;
8964;SDS011;4517;49.020;12.066;2023-04-23T06:02:29;13.10;;;11.97;;
8964;SDS011;4517;49.020;12.066;2023-04-23T06:04:57;12.93;;;12.00;;
8964;SDS011;4517;49.020;12.066;2023-04-23T06:07:23;13.00;;;12.20;;
8964;SDS011;4517;49.020;12.066;2023-04-23T06:09:48;13.23;;;12.20;;
8964;SDS011;4517;49.020;12.066;2023-04-23T06:12:14;14.10;;;13.00;;
8964;SDS011;4517;49.020;12.066;2023-04-23T06:14:40;12.87;;;11.60;;
8964;SDS011;4517;49.020;12.066;2023-04-23T06:17:06;12.27;;;11.37;;
8964;SDS011;4517;49.020;12.066;2023-04-23T06:19:32;12.33;;;11.67;;
8964;SDS011;4517;49.020;12.066;2023-04-23T06:21:57;11.93;;;11.23;;
8964;SDS011;4517;49.020;12.066;2023-04-23T06:24:23;12.67;;;11.97;;
8964;SDS011;4517;49.020;12.066;2023-04-23T06:26:50;13.53;;;11.23;;
8964;SDS011;4517;49.020;12.066;2023-04-23T06:29:16;12.07;;;11.43;;
8964;SDS011;4517;49.020;12.066;2023-04-23T06:31:41;12.53;;;11.60;;
8964;SDS011;4517;49.020;12.066;2023-04-23T06:34:07;12.23;;;11.30;;
8964;SDS011;4517;49.020;12.066;2023-04-23T06:36:33;11.90;;;11.20;;
8964;SDS011;4517;49.020;12.066;2023-04-23T06:38:59;12.13;;;11.53;;
8964;SDS011;4517;49.020;12.066;2023-04-23T06:41:24;11.57;;;10.93;;
8964;SDS011;4517;49.020;12.066;2023-04-23T06:43:50;12.37;;;11.60;;
8964;SDS011;4517;49.020;12.066;2023-04-23T06:46:15;12.20;;;11.60;;
8964;SDS011;4517;49.020;12.066;2023-04-23T06:48:41;12.40;;;11.53;;
8964;SDS011;4517;49.020;12.066;2023-04-23T06:51:07;12.10;;;11.50;;
8964;SDS011;4517;49.020;12.066;2023-04-23T06:53:33;12.10;;;11.30;;
8964;SDS011;4517;49.020;12.066;2023-04-23T06:56:01;12.60;;;11.70;;
8964;SDS011;4517;49.020;12.066;2023-04-23T06:58:27;12.10;;;11.30;;
8964;SDS011;4517;49.020;12.066;2023-04-23T07:01:00;12.00;;;11.40;;
8964;SDS011;4517;49.020;12.066;2023-04-23T07:03:28;12.60;;;12.00;;
8964;SDS011;4517;49.020;12.066;2023-04-23T07:05:54;11.90;;;11.20;;
8964;SDS011;4517;49.020;12.066;2023-04-23T07:08:20;11.50;;;10.70;;
8964;SDS011;4517;49.020;12.066;2023-04-23T07:10:46;14.83;;;11.43;;
8964;SDS011;4517;49.020;12.066;2023-04-23T07:13:12;10.90;;;10.37;;
8964;SDS011;4517;49.020;12.066;2023-04-23T07:15:38;11.40;;;10.70;;
8964;SDS011;4517;49.020;12.066;2023-04-23T07:18:04;12.00;;;11.23;;
8964;SDS011;4517;49.020;12.066;2023-04-23T07:20:35;11.10;;;10.50;;
8964;SDS011;4517;49.020;12.066;2023-04-23T07:23:04;12.00;;;11.30;;
8964;SDS011;4517;49.020;12.066;2023-04-23T07:25:29;12.10;;;11.23;;
8964;SDS011;4517;49.020;12.066;2023-04-23T07:27:55;11.67;;;10.87;;
8964;SDS011;4517;49.020;12.066;2023-04-23T07:30:21;12.30;;;11.50;;
8964;SDS011;4517;49.020;12.066;2023-04-23T07:32:48;12.80;;;11.80;;
8964;SDS011;4517;49.020;12.066;2023-04-23T07:35:14;12.20;;;11.50;;
8964;SDS011;4517;49.020;12.066;2023-04-23T07:37:40;12.10;;;11.40;;
8964;SDS011;4517;49.020;12.066;2023-04-23T07:40:07;12.37;;;11.53;;
8964;SDS011;4517;49.020;12.066;2023-04-23T07:42:33;12.30;;;11.43;;
8964;SDS011;4517;49.020;12.066;2023-04-23T07:44:58;11.83;;;11.10;;
8964;SDS011;4517;49.020;12.066;2023-04-23T07:47:24;12.27;;;11.47;;
8964;SDS011;4517;49.020;12.066;2023-04-23T07:49:50;12.13;;;11.20;;
8964;SDS011;4517;49.020;12.066;2023-04-23T07:52:15;11.83;;;11.03;;
8964;SDS011;4517;49.020;12.066;2023-04-23T07:54:41;12.80;;;12.03;;
8964;SDS011;4517;49.020;12.066;2023-04-23T07:57:07;12.33;;;11.50;;
8964;SDS011;4517;49.020;12.066;2023-04-23T07:59:34;12.57;;;11.87;;
8964;SDS011;4517;49.020;12.066;2023-04-23T08:02:00;12.07;;;11.43;;
8964;SDS011;4517;49.020;12.066;2023-04-23T08:04:25;13.07;;;12.20;;
8964;SDS011;4517;49.020;12.066;2023-04-23T08:06:51;12.20;;;11.50;;
8964;SDS011;4517;49.020;12.066;2023-04-23T08:09:17;13.00;;;12.10;;
8964;SDS011;4517;49.020;12.066;2023-04-23T08:11:43;13.77;;;12.97;;
8964;SDS011;4517;49.020;12.066;2023-04-23T08:14:08;14.47;;;13.50;;
8964;SDS011;4517;49.020;12.066;2023-04-23T08:16:34;14.83;;;13.73;;
8964;SDS011;4517;49.020;12.066;2023-04-23T08:19:00;14.63;;;13.50;;
8964;SDS011;4517;49.020;12.066;2023-04-23T08:21:25;15.03;;;14.13;;
8964;SDS011;4517;49.020;12.066;2023-04-23T08:23:51;14.60;;;13.80;;
8964;SDS011;4517;49.020;12.066;2023-04-23T08:26:17;19.60;;;18.20;;
8964;SDS011;4517;49.020;12.066;2023-04-23T08:28:45;21.20;;;19.77;;
8964;SDS011;4517;49.020;12.066;2023-04-23T08:31:10;23.37;;;21.67;;
8964;SDS011;4517;49.020;12.066;2023-04-23T08:33:36;22.53;;;20.73;;
8964;SDS011;4517;49.020;12.066;2023-04-23T08:36:02;23.47;;;21.87;;
8964;SDS011;4517;49.020;12.066;2023-04-23T08:38:28;23.50;;;21.90;;
8964;SDS011;4517;49.020;12.066;2023-04-23T08:40:55;23.53;;;21.73;;
8964;SDS011;4517;49.020;12.066;2023-04-23T08:43:25;24.13;;;22.37;;
8964;SDS011;4517;49.020;12.066;2023-04-23T08:46:11;25.17;;;23.27;;
8964;SDS011;4517;49.020;12.066;2023-04-23T08:48:39;25.40;;;23.33;;
8964;SDS011;4517;49.020;12.066;2023-04-23T08:51:06;26.30;;;24.00;;
8964;SDS011;4517;49.020;12.066;2023-04-23T08:53:35;24.17;;;22.00;;
8964;SDS011;4517;49.020;12.066;2023-04-23T08:56:02;26.93;;;24.93;;
8964;SDS011;4517;49.020;12.066;2023-04-23T08:58:30;27.33;;;24.77;;
8964;SDS011;4517;49.020;12.066;2023-04-23T09:00:56;25.83;;;23.93;;
8964;SDS011;4517;49.020;12.066;2023-04-23T09:03:22;25.60;;;23.70;;
8964;SDS011;4517;49.020;12.066;2023-04-23T09:05:50;26.43;;;24.53;;
8964;SDS011;4517;49.020;12.066;2023-04-23T09:08:18;26.07;;;24.27;;
8964;SDS011;4517;49.020;12.066;2023-04-23T09:10:44;28.47;;;26.13;;
8964;SDS011;4517;49.020;12.066;2023-04-23T09:13:11;27.93;;;25.43;;
8964;SDS011;4517;49.020;12.066;2023-04-23T09:15:38;26.70;;;24.30;;
8964;SDS011;4517;49.020;12.066;2023-04-23T09:18:07;25.33;;;23.23;;
8964;SDS011;4517;49.020;12.066;2023-04-23T09:20:33;24.57;;;22.67;;
8964;SDS011;4517;49.020;12.066;2023-04-23T09:22:59;23.80;;;21.80;;
8964;SDS011;4517;49.020;12.066;2023-04-23T09:25:30;26.37;;;23.07;;
8964;SDS011;4517;49.020;12.066;2023-04-23T09:27:57;31.83;;;29.63;;
8964;SDS011;4517;49.020;12.066;2023-04-23T09:30:22;24.70;;;22.90;;
8964;SDS011;4517;49.020;12.066;2023-04-23T09:32:50;26.33;;;24.33;;
8964;SDS011;4517;49.020;12.066;2023-04-23T09:35:16;38.87;;;35.97;;
8964;SDS011;4517;49.020;12.066;2023-04-23T09:37:49;26.00;;;24.20;;
8964;SDS011;4517;49.020;12.066;2023-04-23T09:40:17;24.20;;;22.40;;
8964;SDS011;4517;49.020;12.066;2023-04-23T09:42:47;24.23;;;22.40;;
8964;SDS011;4517;49.020;12.066;2023-04-23T09:45:14;24.47;;;22.80;;
8964;SDS011;4517;49.020;12.066;2023-04-23T09:47:46;24.80;;;22.90;;
8964;SDS011;4517;49.020;12.066;2023-04-23T09:50:17;26.53;;;24.47;;
8964;SDS011;4517;49.020;12.066;2023-04-23T09:52:43;23.80;;;22.00;;
8964;SDS011;4517;49.020;12.066;2023-04-23T09:55:09;24.37;;;22.57;;
8964;SDS011;4517;49.020;12.066;2023-04-23T09:57:39;30.80;;;28.73;;
8964;SDS011;4517;49.020;12.066;2023-04-23T10:00:39;22.37;;;20.77;;
8964;SDS011;4517;49.020;12.066;2023-04-23T10:02:59;22.90;;;21.07;;
8964;SDS011;4517;49.020;12.066;2023-04-23T10:05:25;21.43;;;19.93;;
8964;SDS011;4517;49.020;12.066;2023-04-23T10:07:54;22.37;;;20.77;;
8964;SDS011;4517;49.020;12.066;2023-04-23T10:10:21;21.87;;;20.37;;
8964;SDS011;4517;49.020;12.066;2023-04-23T10:12:47;20.17;;;18.93;;
8964;SDS011;4517;49.020;12.066;2023-04-23T10:15:15;20.10;;;18.80;;
8964;SDS011;4517;49.020;12.066;2023-04-23T10:17:41;20.73;;;19.33;;
8964;SDS011;4517;49.020;12.066;2023-04-23T10:20:07;19.93;;;18.73;;
8964;SDS011;4517;49.020;12.066;2023-04-23T10:22:36;19.83;;;18.63;;
8964;SDS011;4517;49.020;12.066;2023-04-23T10:25:03;18.90;;;17.90;;
8964;SDS011;4517;49.020;12.066;2023-04-23T10:27:33;20.67;;;19.27;;
8964;SDS011;4517;49.020;12.066;2023-04-23T10:30:05;19.90;;;18.60;;
8964;SDS011;4517;49.020;12.066;2023-04-23T10:32:35;18.50;;;17.40;;
8964;SDS011;4517;49.020;12.066;2023-04-23T10:35:01;17.43;;;16.23;;
8964;SDS011;4517;49.020;12.066;2023-04-23T10:37:27;19.00;;;17.60;;
8964;SDS011;4517;49.020;12.066;2023-04-23T10:39:54;18.70;;;17.50;;
8964;SDS011;4517;49.020;12.066;2023-04-23T10:42:23;17.43;;;16.43;;
8964;SDS011;4517;49.020;12.066;2023-04-23T10:44:49;15.80;;;14.87;;
8964;SDS011;4517;49.020;12.066;2023-04-23T10:47:16;16.63;;;15.63;;
8964;SDS011;4517;49.020;12.066;2023-04-23T10:49:45;17.00;;;15.80;;
8964;SDS011;4517;49.020;12.066;2023-04-23T10:52:13;17.60;;;16.60;;
8964;SDS011;4517;49.020;12.066;2023-04-23T10:54:42;17.10;;;16.10;;
8964;SDS011;4517;49.020;12.066;2023-04-23T10:57:12;18.70;;;17.60;;
8964;SDS011;4517;49.020;12.066;2023-04-23T10:59:39;17.10;;;16.10;;
8964;SDS011;4517;49.020;12.066;2023-04-23T11:02:25;18.40;;;17.30;;
8964;SDS011;4517;49.020;12.066;2023-04-23T11:05:07;18.70;;;17.60;;
8964;SDS011;4517;49.020;12.066;2023-04-23T11:07:33;18.43;;;17.23;;
8964;SDS011;4517;49.020;12.066;2023-04-23T11:10:00;18.60;;;17.40;;
8964;SDS011;4517;49.020;12.066;2023-04-23T11:12:38;18.80;;;17.50;;
8964;SDS011;4517;49.020;12.066;2023-04-23T11:15:12;18.50;;;17.30;;
8964;SDS011;4517;49.020;12.066;2023-04-23T11:20:13;17.10;;;15.90;;
8964;SDS011;4517;49.020;12.066;2023-04-23T11:22:47;17.50;;;16.50;;
8964;SDS011;4517;49.020;12.066;2023-04-23T11:27:40;18.30;;;17.10;;
8964;SDS011;4517;49.020;12.066;2023-04-23T11:30:17;17.53;;;16.50;;
8964;SDS011;4517;49.020;12.066;2023-04-23T11:32:50;17.00;;;15.90;;
8964;SDS011;4517;49.020;12.066;2023-04-23T11:35:18;16.23;;;15.20;;
8964;SDS011;4517;49.020;12.066;2023-04-23T11:37:45;16.80;;;15.70;;
8964;SDS011;4517;49.020;12.066;2023-04-23T11:40:16;15.90;;;15.00;;
8964;SDS011;4517;49.020;12.066;2023-04-23T11:42:46;16.43;;;15.30;;
8964;SDS011;4517;49.020;12.066;2023-04-23T11:45:16;15.07;;;14.17;;
8964;SDS011;4517;49.020;12.066;2023-04-23T11:47:43;14.77;;;13.87;;
8964;SDS011;4517;49.020;12.066;2023-04-23T11:50:19;14.97;;;13.87;;
8964;SDS011;4517;49.020;12.066;2023-04-23T11:52:45;14.93;;;14.03;;
8964;SDS011;4517;49.020;12.066;2023-04-23T11:55:11;14.03;;;12.90;;
8964;SDS011;4517;49.020;12.066;2023-04-23T11:57:47;14.67;;;13.70;;
8964;SDS011;4517;49.020;12.066;2023-04-23T12:03:16;15.07;;;14.17;;
8964;SDS011;4517;49.020;12.066;2023-04-23T12:05:42;15.40;;;14.47;;
8964;SDS011;4517;49.020;12.066;2023-04-23T12:08:13;15.43;;;14.53;;
8964;SDS011;4517;49.020;12.066;2023-04-23T12:10:54;15.17;;;14.27;;
8964;SDS011;4517;49.020;12.066;2023-04-23T12:13:34;15.90;;;14.80;;
8964;SDS011;4517;49.020;12.066;2023-04-23T12:16:01;14.63;;;13.63;;
8964;SDS011;4517;49.020;12.066;2023-04-23T12:18:28;15.70;;;14.80;;
8964;SDS011;4517;49.020;12.066;2023-04-23T12:24:05;15.50;;;14.60;;
8964;SDS011;4517;49.020;12.066;2023-04-23T12:26:31;15.63;;;14.73;;
8964;SDS011;4517;49.020;12.066;2023-04-23T12:28:57;16.23;;;15.20;;
8964;SDS011;4517;49.020;12.066;2023-04-23T12:31:24;14.00;;;13.20;;
8964;SDS011;4517;49.020;12.066;2023-04-23T12:34:04;16.00;;;15.00;;
8964;SDS011;4517;49.020;12.066;2023-04-23T12:36:31;15.37;;;14.47;;
8964;SDS011;4517;49.020;12.066;2023-04-23T12:41:58;15.10;;;14.10;;
8964;SDS011;4517;49.020;12.066;2023-04-23T12:44:27;14.20;;;13.40;;
8964;SDS011;4517;49.020;12.066;2023-04-23T12:46:53;14.50;;;13.57;;
8964;SDS011;4517;49.020;12.066;2023-04-23T12:49:23;13.93;;;13.13;;
8964;SDS011;4517;49.020;12.066;2023-04-23T12:51:50;15.77;;;14.60;;
8964;SDS011;4517;49.020;12.066;2023-04-23T12:54:17;15.97;;;14.97;;
8964;SDS011;4517;49.020;12.066;2023-04-23T12:56:42;14.30;;;13.40;;
8964;SDS011;4517;49.020;12.066;2023-04-23T12:59:08;14.17;;;13.27;;
8964;SDS011;4517;49.020;12.066;2023-04-23T13:01:33;15.13;;;14.23;;
8964;SDS011;4517;49.020;12.066;2023-04-23T13:03:59;15.00;;;13.73;;
8964;SDS011;4517;49.020;12.066;2023-04-23T13:06:25;14.97;;;14.00;;
8964;SDS011;4517;49.020;12.066;2023-04-23T13:08:51;14.20;;;13.30;;
8964;SDS011;4517;49.020;12.066;2023-04-23T13:11:18;16.73;;;15.73;;
8964;SDS011;4517;49.020;12.066;2023-04-23T13:13:43;15.27;;;14.47;;
8964;SDS011;4517;49.020;12.066;2023-04-23T13:16:09;14.53;;;13.73;;
8964;SDS011;4517;49.020;12.066;2023-04-23T13:18:35;13.00;;;12.20;;
8964;SDS011;4517;49.020;12.066;2023-04-23T13:21:01;12.73;;;12.03;;
8964;SDS011;4517;49.020;12.066;2023-04-23T13:23:26;13.10;;;12.30;;
8964;SDS011;4517;49.020;12.066;2023-04-23T13:25:52;11.87;;;11.23;;
8964;SDS011;4517;49.020;12.066;2023-04-23T13:28:18;13.40;;;12.70;;
8964;SDS011;4517;49.020;12.066;2023-04-23T13:30:43;12.90;;;12.20;;
8964;SDS011;4517;49.020;12.066;2023-04-23T13:33:09;12.63;;;11.83;;
8964;SDS011;4517;49.020;12.066;2023-04-23T13:35:34;14.10;;;13.30;;
8964;SDS011;4517;49.020;12.066;2023-04-23T13:38:01;12.27;;;11.57;;
8964;SDS011;4517;49.020;12.066;2023-04-23T13:40:27;12.57;;;11.57;;
8964;SDS011;4517;49.020;12.066;2023-04-23T13:42:53;12.57;;;11.87;;
8964;SDS011;4517;49.020;12.066;2023-04-23T13:45:19;13.83;;;13.10;;
8964;SDS011;4517;49.020;12.066;2023-04-23T13:47:44;13.57;;;12.67;;
8964;SDS011;4517;49.020;12.066;2023-04-23T13:50:10;12.70;;;12.10;;
8964;SDS011;4517;49.020;12.066;2023-04-23T13:52:36;27.03;;;25.63;;
8964;SDS011;4517;49.020;12.066;2023-04-23T13:55:03;13.23;;;12.00;;
8964;SDS011;4517;49.020;12.066;2023-04-23T13:57:31;13.10;;;12.30;;
8964;SDS011;4517;49.020;12.066;2023-04-23T13:59:57;13.13;;;12.43;;
8964;SDS011;4517;49.020;12.066;2023-04-23T14:02:24;12.90;;;12.07;;
8964;SDS011;4517;49.020;12.066;2023-04-23T14:04:49;13.70;;;13.00;;
8964;SDS011;4517;49.020;12.066;2023-04-23T14:07:15;19.27;;;17.27;;
8964;SDS011;4517;49.020;12.066;2023-04-23T14:09:40;13.43;;;12.63;;
8964;SDS011;4517;49.020;12.066;2023-04-23T14:12:06;13.30;;;12.60;;
8964;SDS011;4517;49.020;12.066;2023-04-23T14:14:32;13.90;;;13.10;;
8964;SDS011;4517;49.020;12.066;2023-04-23T14:16:58;13.53;;;12.83;;
8964;SDS011;4517;49.020;12.066;2023-04-23T14:19:23;15.80;;;14.87;;
8964;SDS011;4517;49.020;12.066;2023-04-23T14:21:49;12.97;;;12.30;;
8964;SDS011;4517;49.020;12.066;2023-04-23T14:24:21;14.43;;;13.00;;
8964;SDS011;4517;49.020;12.066;2023-04-23T14:26:48;12.77;;;11.97;;
8964;SDS011;4517;49.020;12.066;2023-04-23T14:29:18;13.03;;;12.20;;
8964;SDS011;4517;49.020;12.066;2023-04-23T14:31:54;13.50;;;12.80;;
8964;SDS011;4517;49.020;12.066;2023-04-23T14:34:20;12.83;;;12.13;;
8964;SDS011;4517;49.020;12.066;2023-04-23T14:36:46;12.40;;;11.80;;
8964;SDS011;4517;49.020;12.066;2023-04-23T14:39:13;12.83;;;12.13;;
8964;SDS011;4517;49.020;12.066;2023-04-23T14:41:40;12.80;;;11.97;;
8964;SDS011;4517;49.020;12.066;2023-04-23T14:44:06;13.20;;;12.40;;
8964;SDS011;4517;49.020;12.066;2023-04-23T14:46:31;12.20;;;11.50;;
8964;SDS011;4517;49.020;12.066;2023-04-23T14:48:57;13.20;;;12.40;;
8964;SDS011;4517;49.020;12.066;2023-04-23T14:51:22;12.90;;;12.20;;